AJR weather

Arvidsjaur Airport
Arvidsjaur, Norrbottena län, Sweden

Public forecast

Using degrees Celsius for public forecast. Weather courtesy of forecast.io.

Current aviation weather report (METAR) for Arvidsjaur Airport

Retrieved 2020/06/05 13:50 UTC (22 minutes ago):

ESNX 051350Z 05010KT 9999 OVC023 12/07 Q1002

Closest aviation forecast (TAF) to Arvidsjaur Airport

Forecast is more than 12 hours old.

Closest forecast is Vidsel Air Base, 27.4 nm (50.8 km) NE. Retrieved 2015/06/10 06:57 UTC (5 years ago):

TAF TAF HKEL 100500Z 1006/1106 30005KT 9999AR ESPE 100550Z 26008KT 210V320 CAVOK 10/02 Q1008